Attica, Indiana
Current Conditions -  °F | °C
As of 6:54 PM on Wednesday 26 Nov 2014 (Local Time) from KLAF Reporting Station
Clear Clear  
Wind Chill: 18°   Ceiling: Unl
Heat Index: 26°   Visibility: 10mi
Dew Point: 21°   Wind: 7mph
Humidity: 81%   Direction: 30°NNE
Pressure: 30.09"   Gusts: NA
Location:  40.29°N, 87.25°W
Report Text: KLAF 262354Z 03006KT 10SM CLR M03/M06 A3009 RMK AO2 SLP196 T10331061 11006 21033 51004
Loading
Personal Weather Stations






























Interactive Weather Map New forecast layout! Learn more

10-Day Weather Forecast

Advertisements
Track Severe Weather on mobile